This is the latest recevied weather packets stored in our database for station/object SV3CQY. If no packets are shown the sender has not sent any weather packets the latest 10 day(s).
| Time | Temp. | Humidity | Pressure | Rain* | Wind** | Luminosity | Snow |
|---|---|---|---|---|---|---|---|
| 1777917630 | 17.22° C | 54% | 1017.2 hPa | 0 mm | - | - | - |
| 1777916411 | 17.22° C | 55% | 1017.1 hPa | 0 mm | - | - | - |
| 1777915829 | 17.78° C | 54% | 1017 hPa | 0 mm | - | - | - |
| 1777915511 | 17.78° C | 51% | 1016.8 hPa | 0 mm | - | - | - |
| 1777914928 | 18.33° C | 48% | 1016.8 hPa | 0 mm | - | - | - |
| 1777913414 | 18.89° C | 45% | 1016.7 hPa | 0 mm | - | - | - |
| 1777910428 | 20.56° C | 41% | 1016.7 hPa | 0 mm | - | - | - |
| 1777904710 | 21.67° C | 39% | 1016.7 hPa | 0 mm | - | - | - |
| 1777901427 | 22.22° C | 40% | 1016.8 hPa | 0 mm | - | - | - |
| 1777899910 | 21.11° C | 44% | 1017 hPa | 0 mm | - | - | - |
| 1777898412 | 20.56° C | 46% | 1017.1 hPa | 0 mm | - | - | - |
| 1777897515 | 20.56° C | 43% | 1017.3 hPa | 0 mm | - | - | - |
| 1777896315 | 20.56° C | 42% | 1017.3 hPa | 0 mm | - | - | - |
| 1777896032 | 20.56° C | 41% | 1017.5 hPa | 0 mm | - | - | - |
| 1777893009 | 21.67° C | 42% | 1017.7 hPa | 0 mm | - | - | - |
| 1777892713 | 21.11° C | 41% | 1017.8 hPa | 0 mm | - | - | - |
| 1777891811 | 21.11° C | 41% | 1017.9 hPa | 0 mm | - | - | - |
| 1777891528 | 20.56° C | 40% | 1017.9 hPa | 0 mm | - | - | - |
| 1777890911 | 20.56° C | 41% | 1018.1 hPa | 0 mm | - | - | - |
| 1777890629 | 20.56° C | 42% | 1018.2 hPa | 0 mm | - | - | - |
| 1777889114 | 20° C | 43% | 1018.4 hPa | 0 mm | - | - | - |
| 1777888511 | 20° C | 45% | 1018.5 hPa | 0 mm | - | - | - |
| 1777887307 | 20° C | 44% | 1018.7 hPa | 0 mm | - | - | - |
| 1777886715 | 20° C | 43% | 1018.6 hPa | 0 mm | - | - | - |
| 1777885230 | 19.44° C | 44% | 1018.8 hPa | 0 mm | - | - | - |
* Rain latest hour (hover to see other rain measurements)
** Current wind speed in m/s (hover to see current wind gust speed)